sensor_id;sensor_type;location;lat;lon;timestamp;P1;durP1;ratioP1;P2;durP2;ratioP2
19329;SDS011;9799;48.214;16.388;2022-07-23T00:02:16;11.05;;;9.82;;
19329;SDS011;9799;48.214;16.388;2022-07-23T00:05:39;12.15;;;10.52;;
19329;SDS011;9799;48.214;16.388;2022-07-23T00:09:00;12.63;;;11.25;;
19329;SDS011;9799;48.214;16.388;2022-07-23T00:12:21;12.00;;;10.55;;
19329;SDS011;9799;48.214;16.388;2022-07-23T00:15:42;11.27;;;10.27;;
19329;SDS011;9799;48.214;16.388;2022-07-23T00:19:04;11.60;;;10.60;;
19329;SDS011;9799;48.214;16.388;2022-07-23T00:22:26;11.30;;;10.20;;
19329;SDS011;9799;48.214;16.388;2022-07-23T00:25:48;10.35;;;9.35;;
19329;SDS011;9799;48.214;16.388;2022-07-23T00:29:09;10.77;;;9.77;;
19329;SDS011;9799;48.214;16.388;2022-07-23T00:32:30;11.90;;;10.18;;
19329;SDS011;9799;48.214;16.388;2022-07-23T00:35:51;12.35;;;10.57;;
19329;SDS011;9799;48.214;16.388;2022-07-23T00:39:14;12.02;;;10.02;;
19329;SDS011;9799;48.214;16.388;2022-07-23T00:42:35;11.52;;;10.32;;
19329;SDS011;9799;48.214;16.388;2022-07-23T00:45:56;11.30;;;10.30;;
19329;SDS011;9799;48.214;16.388;2022-07-23T00:49:17;12.10;;;11.10;;
19329;SDS011;9799;48.214;16.388;2022-07-23T00:52:39;14.00;;;11.23;;
19329;SDS011;9799;48.214;16.388;2022-07-23T00:56:03;11.98;;;10.63;;
19329;SDS011;9799;48.214;16.388;2022-07-23T00:59:25;11.40;;;10.25;;
19329;SDS011;9799;48.214;16.388;2022-07-23T01:02:46;11.52;;;10.35;;
19329;SDS011;9799;48.214;16.388;2022-07-23T01:06:07;13.73;;;11.52;;
19329;SDS011;9799;48.214;16.388;2022-07-23T01:09:28;13.18;;;10.98;;
19329;SDS011;9799;48.214;16.388;2022-07-23T01:12:52;11.55;;;10.43;;
19329;SDS011;9799;48.214;16.388;2022-07-23T01:16:13;11.18;;;10.07;;
19329;SDS011;9799;48.214;16.388;2022-07-23T01:19:35;10.55;;;9.65;;
19329;SDS011;9799;48.214;16.388;2022-07-23T01:22:57;11.52;;;10.52;;
19329;SDS011;9799;48.214;16.388;2022-07-23T01:26:18;11.18;;;10.18;;
19329;SDS011;9799;48.214;16.388;2022-07-23T01:29:40;13.45;;;10.52;;
19329;SDS011;9799;48.214;16.388;2022-07-23T01:33:01;11.77;;;10.75;;
19329;SDS011;9799;48.214;16.388;2022-07-23T01:36:22;10.93;;;9.82;;
19329;SDS011;9799;48.214;16.388;2022-07-23T01:39:44;13.13;;;10.27;;
19329;SDS011;9799;48.214;16.388;2022-07-23T01:43:05;11.80;;;10.80;;
19329;SDS011;9799;48.214;16.388;2022-07-23T01:46:27;15.55;;;11.52;;
19329;SDS011;9799;48.214;16.388;2022-07-23T01:49:48;12.70;;;11.50;;
19329;SDS011;9799;48.214;16.388;2022-07-23T01:53:09;15.43;;;12.38;;
19329;SDS011;9799;48.214;16.388;2022-07-23T01:56:31;13.50;;;12.20;;
19329;SDS011;9799;48.214;16.388;2022-07-23T01:59:53;14.25;;;11.55;;
19329;SDS011;9799;48.214;16.388;2022-07-23T02:03:15;12.27;;;11.27;;
19329;SDS011;9799;48.214;16.388;2022-07-23T02:06:36;16.83;;;11.13;;
19329;SDS011;9799;48.214;16.388;2022-07-23T02:09:57;13.52;;;12.23;;
19329;SDS011;9799;48.214;16.388;2022-07-23T02:13:20;13.15;;;12.05;;
19329;SDS011;9799;48.214;16.388;2022-07-23T02:16:41;13.20;;;12.00;;
19329;SDS011;9799;48.214;16.388;2022-07-23T02:20:02;13.88;;;12.50;;
19329;SDS011;9799;48.214;16.388;2022-07-23T02:23:24;13.18;;;12.07;;
19329;SDS011;9799;48.214;16.388;2022-07-23T02:26:45;13.27;;;11.95;;
19329;SDS011;9799;48.214;16.388;2022-07-23T02:30:08;13.02;;;11.98;;
19329;SDS011;9799;48.214;16.388;2022-07-23T02:33:30;13.27;;;12.07;;
19329;SDS011;9799;48.214;16.388;2022-07-23T02:36:51;13.38;;;12.10;;
19329;SDS011;9799;48.214;16.388;2022-07-23T02:40:12;14.07;;;12.85;;
19329;SDS011;9799;48.214;16.388;2022-07-23T02:43:33;12.95;;;11.75;;
19329;SDS011;9799;48.214;16.388;2022-07-23T02:46:56;12.73;;;11.63;;
19329;SDS011;9799;48.214;16.388;2022-07-23T02:50:17;14.15;;;12.95;;
19329;SDS011;9799;48.214;16.388;2022-07-23T02:53:38;15.40;;;12.88;;
19329;SDS011;9799;48.214;16.388;2022-07-23T02:56:59;17.50;;;12.50;;
19329;SDS011;9799;48.214;16.388;2022-07-23T03:00:20;15.27;;;13.90;;
19329;SDS011;9799;48.214;16.388;2022-07-23T03:03:43;13.48;;;12.25;;
19329;SDS011;9799;48.214;16.388;2022-07-23T03:07:04;14.95;;;13.25;;
19329;SDS011;9799;48.214;16.388;2022-07-23T03:10:25;13.77;;;12.38;;
19329;SDS011;9799;48.214;16.388;2022-07-23T03:13:46;14.77;;;13.48;;
19329;SDS011;9799;48.214;16.388;2022-07-23T03:17:07;14.18;;;12.65;;
19329;SDS011;9799;48.214;16.388;2022-07-23T03:20:31;14.80;;;13.25;;
19329;SDS011;9799;48.214;16.388;2022-07-23T03:23:52;14.38;;;12.95;;
19329;SDS011;9799;48.214;16.388;2022-07-23T03:27:13;16.05;;;14.63;;
19329;SDS011;9799;48.214;16.388;2022-07-23T03:30:34;14.57;;;13.27;;
19329;SDS011;9799;48.214;16.388;2022-07-23T03:33:55;13.68;;;12.27;;
19329;SDS011;9799;48.214;16.388;2022-07-23T03:37:18;16.15;;;14.65;;
19329;SDS011;9799;48.214;16.388;2022-07-23T03:40:40;15.25;;;13.88;;
19329;SDS011;9799;48.214;16.388;2022-07-23T03:44:01;15.48;;;14.02;;
19329;SDS011;9799;48.214;16.388;2022-07-23T03:47:22;17.08;;;13.70;;
19329;SDS011;9799;48.214;16.388;2022-07-23T03:50:43;17.83;;;13.73;;
19329;SDS011;9799;48.214;16.388;2022-07-23T03:54:06;14.05;;;12.68;;
19329;SDS011;9799;48.214;16.388;2022-07-23T03:57:27;15.52;;;12.93;;
19329;SDS011;9799;48.214;16.388;2022-07-23T04:00:48;14.45;;;12.77;;
19329;SDS011;9799;48.214;16.388;2022-07-23T04:04:09;15.40;;;13.90;;
19329;SDS011;9799;48.214;16.388;2022-07-23T04:07:31;16.50;;;13.18;;
19329;SDS011;9799;48.214;16.388;2022-07-23T04:10:53;14.63;;;12.50;;
19329;SDS011;9799;48.214;16.388;2022-07-23T04:14:15;15.18;;;12.98;;
19329;SDS011;9799;48.214;16.388;2022-07-23T04:17:36;15.80;;;12.27;;
19329;SDS011;9799;48.214;16.388;2022-07-23T04:20:57;13.82;;;12.27;;
19329;SDS011;9799;48.214;16.388;2022-07-23T04:24:18;13.63;;;12.48;;
19329;SDS011;9799;48.214;16.388;2022-07-23T04:27:41;14.27;;;12.55;;
19329;SDS011;9799;48.214;16.388;2022-07-23T04:31:02;13.38;;;12.13;;
19329;SDS011;9799;48.214;16.388;2022-07-23T04:34:23;16.45;;;13.02;;
19329;SDS011;9799;48.214;16.388;2022-07-23T04:37:45;13.95;;;11.88;;
19329;SDS011;9799;48.214;16.388;2022-07-23T04:41:07;14.43;;;12.88;;
19329;SDS011;9799;48.214;16.388;2022-07-23T04:44:29;15.30;;;12.45;;
19329;SDS011;9799;48.214;16.388;2022-07-23T04:47:50;14.23;;;13.00;;
19329;SDS011;9799;48.214;16.388;2022-07-23T04:51:11;13.52;;;12.20;;
19329;SDS011;9799;48.214;16.388;2022-07-23T04:54:33;13.45;;;12.18;;
19329;SDS011;9799;48.214;16.388;2022-07-23T04:57:54;14.55;;;13.15;;
19329;SDS011;9799;48.214;16.388;2022-07-23T05:01:16;14.75;;;13.45;;
19329;SDS011;9799;48.214;16.388;2022-07-23T05:04:37;14.65;;;13.02;;
19329;SDS011;9799;48.214;16.388;2022-07-23T05:07:59;14.40;;;12.90;;
19329;SDS011;9799;48.214;16.388;2022-07-23T05:11:20;14.57;;;12.82;;
19329;SDS011;9799;48.214;16.388;2022-07-23T05:14:41;17.13;;;13.57;;
19329;SDS011;9799;48.214;16.388;2022-07-23T05:18:03;14.02;;;12.57;;
19329;SDS011;9799;48.214;16.388;2022-07-23T05:21:25;14.60;;;13.20;;
19329;SDS011;9799;48.214;16.388;2022-07-23T05:24:46;16.20;;;13.05;;
19329;SDS011;9799;48.214;16.388;2022-07-23T05:28:07;14.45;;;13.02;;
19329;SDS011;9799;48.214;16.388;2022-07-23T05:31:28;15.35;;;13.23;;
19329;SDS011;9799;48.214;16.388;2022-07-23T05:34:51;14.63;;;13.13;;
19329;SDS011;9799;48.214;16.388;2022-07-23T05:38:12;14.55;;;13.05;;
19329;SDS011;9799;48.214;16.388;2022-07-23T05:41:33;14.43;;;13.13;;
19329;SDS011;9799;48.214;16.388;2022-07-23T05:44:54;14.15;;;12.75;;
19329;SDS011;9799;48.214;16.388;2022-07-23T05:48:15;12.43;;;11.35;;
19329;SDS011;9799;48.214;16.388;2022-07-23T05:51:38;16.73;;;13.07;;
19329;SDS011;9799;48.214;16.388;2022-07-23T05:54:59;13.48;;;12.07;;
19329;SDS011;9799;48.214;16.388;2022-07-23T05:58:20;13.25;;;12.05;;
19329;SDS011;9799;48.214;16.388;2022-07-23T06:01:41;12.75;;;11.65;;
19329;SDS011;9799;48.214;16.388;2022-07-23T06:05:03;15.52;;;12.32;;
19329;SDS011;9799;48.214;16.388;2022-07-23T06:08:25;13.35;;;11.73;;
19329;SDS011;9799;48.214;16.388;2022-07-23T06:11:47;13.25;;;11.95;;
19329;SDS011;9799;48.214;16.388;2022-07-23T06:15:08;13.75;;;11.88;;
19329;SDS011;9799;48.214;16.388;2022-07-23T06:18:30;14.20;;;12.88;;
19329;SDS011;9799;48.214;16.388;2022-07-23T06:21:52;15.57;;;12.30;;
19329;SDS011;9799;48.214;16.388;2022-07-23T06:25:14;14.57;;;13.07;;
19329;SDS011;9799;48.214;16.388;2022-07-23T06:28:36;13.30;;;12.05;;
19329;SDS011;9799;48.214;16.388;2022-07-23T06:31:57;13.80;;;12.40;;
19329;SDS011;9799;48.214;16.388;2022-07-23T06:35:18;13.10;;;11.90;;
19329;SDS011;9799;48.214;16.388;2022-07-23T06:38:39;12.52;;;11.38;;
19329;SDS011;9799;48.214;16.388;2022-07-23T06:42:02;11.43;;;10.23;;
19329;SDS011;9799;48.214;16.388;2022-07-23T06:45:23;11.43;;;10.50;;
19329;SDS011;9799;48.214;16.388;2022-07-23T06:48:44;12.27;;;10.45;;
19329;SDS011;9799;48.214;16.388;2022-07-23T06:52:08;11.20;;;10.20;;
19329;SDS011;9799;48.214;16.388;2022-07-23T06:55:29;10.02;;;9.02;;
19329;SDS011;9799;48.214;16.388;2022-07-23T06:58:52;10.45;;;9.48;;
19329;SDS011;9799;48.214;16.388;2022-07-23T07:02:13;9.57;;;8.77;;
19329;SDS011;9799;48.214;16.388;2022-07-23T07:05:34;9.48;;;8.60;;
19329;SDS011;9799;48.214;16.388;2022-07-23T07:08:55;9.38;;;8.43;;
19329;SDS011;9799;48.214;16.388;2022-07-23T07:12:16;9.00;;;8.20;;
19329;SDS011;9799;48.214;16.388;2022-07-23T07:15:39;7.65;;;7.00;;
19329;SDS011;9799;48.214;16.388;2022-07-23T07:19:00;8.30;;;7.18;;
19329;SDS011;9799;48.214;16.388;2022-07-23T07:22:21;7.53;;;6.82;;
19329;SDS011;9799;48.214;16.388;2022-07-23T07:25:42;7.25;;;6.65;;
19329;SDS011;9799;48.214;16.388;2022-07-23T07:29:03;7.65;;;6.95;;
19329;SDS011;9799;48.214;16.388;2022-07-23T07:32:26;8.40;;;7.47;;
19329;SDS011;9799;48.214;16.388;2022-07-23T07:35:47;6.93;;;6.35;;
19329;SDS011;9799;48.214;16.388;2022-07-23T07:39:08;8.77;;;6.93;;
19329;SDS011;9799;48.214;16.388;2022-07-23T07:42:30;6.65;;;6.15;;
19329;SDS011;9799;48.214;16.388;2022-07-23T07:45:51;17.50;;;15.85;;
19329;SDS011;9799;48.214;16.388;2022-07-23T07:49:14;7.13;;;6.15;;
19329;SDS011;9799;48.214;16.388;2022-07-23T07:52:36;7.32;;;6.30;;
19329;SDS011;9799;48.214;16.388;2022-07-23T07:55:57;7.00;;;6.40;;
19329;SDS011;9799;48.214;16.388;2022-07-23T07:59:19;7.30;;;6.28;;
19329;SDS011;9799;48.214;16.388;2022-07-23T08:02:41;6.85;;;6.25;;
19329;SDS011;9799;48.214;16.388;2022-07-23T08:06:06;7.40;;;6.65;;
19329;SDS011;9799;48.214;16.388;2022-07-23T08:09:27;7.30;;;6.70;;
19329;SDS011;9799;48.214;16.388;2022-07-23T08:12:49;5.70;;;5.10;;
19329;SDS011;9799;48.214;16.388;2022-07-23T08:16:12;7.78;;;7.07;;
19329;SDS011;9799;48.214;16.388;2022-07-23T08:19:33;6.45;;;5.95;;
19329;SDS011;9799;48.214;16.388;2022-07-23T08:22:56;7.15;;;6.20;;
19329;SDS011;9799;48.214;16.388;2022-07-23T08:26:19;7.10;;;6.32;;
19329;SDS011;9799;48.214;16.388;2022-07-23T08:29:40;10.15;;;6.78;;
19329;SDS011;9799;48.214;16.388;2022-07-23T08:33:01;8.95;;;6.50;;
19329;SDS011;9799;48.214;16.388;2022-07-23T08:36:26;9.55;;;6.80;;
19329;SDS011;9799;48.214;16.388;2022-07-23T08:39:48;7.47;;;6.78;;
19329;SDS011;9799;48.214;16.388;2022-07-23T08:43:10;8.60;;;6.68;;
19329;SDS011;9799;48.214;16.388;2022-07-23T08:46:32;7.63;;;7.00;;
19329;SDS011;9799;48.214;16.388;2022-07-23T08:49:54;6.65;;;5.97;;
19329;SDS011;9799;48.214;16.388;2022-07-23T08:53:16;7.35;;;6.75;;
19329;SDS011;9799;48.214;16.388;2022-07-23T08:56:40;6.97;;;6.32;;
19329;SDS011;9799;48.214;16.388;2022-07-23T09:00:02;7.85;;;7.05;;
19329;SDS011;9799;48.214;16.388;2022-07-23T09:03:26;6.95;;;6.30;;
19329;SDS011;9799;48.214;16.388;2022-07-23T09:06:48;7.38;;;6.60;;
19329;SDS011;9799;48.214;16.388;2022-07-23T09:10:10;7.07;;;6.47;;
19329;SDS011;9799;48.214;16.388;2022-07-23T09:13:34;8.25;;;7.25;;
19329;SDS011;9799;48.214;16.388;2022-07-23T09:16:57;7.18;;;6.57;;
19329;SDS011;9799;48.214;16.388;2022-07-23T09:20:29;9.35;;;7.43;;
19329;SDS011;9799;48.214;16.388;2022-07-23T09:23:51;7.53;;;6.93;;
19329;SDS011;9799;48.214;16.388;2022-07-23T09:27:14;9.18;;;7.07;;
19329;SDS011;9799;48.214;16.388;2022-07-23T09:30:39;8.25;;;7.45;;
19329;SDS011;9799;48.214;16.388;2022-07-23T09:34:09;8.57;;;7.57;;
19329;SDS011;9799;48.214;16.388;2022-07-23T09:37:32;8.15;;;7.32;;
19329;SDS011;9799;48.214;16.388;2022-07-23T09:41:06;7.72;;;7.13;;
19329;SDS011;9799;48.214;16.388;2022-07-23T09:44:28;8.48;;;7.70;;
19329;SDS011;9799;48.214;16.388;2022-07-23T09:47:51;8.02;;;7.00;;
19329;SDS011;9799;48.214;16.388;2022-07-23T09:51:30;9.40;;;7.25;;
19329;SDS011;9799;48.214;16.388;2022-07-23T09:54:58;8.80;;;7.90;;
19329;SDS011;9799;48.214;16.388;2022-07-23T09:58:20;8.40;;;7.70;;
19329;SDS011;9799;48.214;16.388;2022-07-23T10:01:43;8.13;;;7.43;;
19329;SDS011;9799;48.214;16.388;2022-07-23T10:05:06;8.43;;;7.72;;
19329;SDS011;9799;48.214;16.388;2022-07-23T10:08:28;12.55;;;8.07;;
19329;SDS011;9799;48.214;16.388;2022-07-23T10:11:52;8.15;;;7.55;;
19329;SDS011;9799;48.214;16.388;2022-07-23T10:15:18;9.10;;;8.15;;
19329;SDS011;9799;48.214;16.388;2022-07-23T10:18:39;8.57;;;7.75;;
19329;SDS011;9799;48.214;16.388;2022-07-23T10:22:04;8.52;;;7.78;;
19329;SDS011;9799;48.214;16.388;2022-07-23T10:25:27;9.73;;;8.38;;
19329;SDS011;9799;48.214;16.388;2022-07-23T10:28:58;8.38;;;7.50;;
19329;SDS011;9799;48.214;16.388;2022-07-23T10:32:26;8.80;;;7.95;;
19329;SDS011;9799;48.214;16.388;2022-07-23T10:35:58;8.85;;;8.05;;
19329;SDS011;9799;48.214;16.388;2022-07-23T10:39:26;8.38;;;7.63;;
19329;SDS011;9799;48.214;16.388;2022-07-23T10:42:50;8.75;;;8.05;;
19329;SDS011;9799;48.214;16.388;2022-07-23T10:46:21;9.13;;;8.15;;
19329;SDS011;9799;48.214;16.388;2022-07-23T10:49:46;10.23;;;9.32;;
19329;SDS011;9799;48.214;16.388;2022-07-23T10:53:08;9.48;;;8.52;;
19329;SDS011;9799;48.214;16.388;2022-07-23T10:56:50;10.15;;;9.13;;
19329;SDS011;9799;48.214;16.388;2022-07-23T11:00:24;9.07;;;7.75;;
19329;SDS011;9799;48.214;16.388;2022-07-23T11:03:54;11.70;;;8.90;;
19329;SDS011;9799;48.214;16.388;2022-07-23T11:07:17;10.48;;;9.15;;
19329;SDS011;9799;48.214;16.388;2022-07-23T11:10:39;9.57;;;8.77;;
19329;SDS011;9799;48.214;16.388;2022-07-23T11:14:03;9.18;;;8.27;;
19329;SDS011;9799;48.214;16.388;2022-07-23T11:17:25;9.88;;;8.98;;
19329;SDS011;9799;48.214;16.388;2022-07-23T11:20:46;9.93;;;8.90;;
19329;SDS011;9799;48.214;16.388;2022-07-23T11:24:08;10.15;;;9.18;;
19329;SDS011;9799;48.214;16.388;2022-07-23T11:27:36;11.60;;;9.63;;
19329;SDS011;9799;48.214;16.388;2022-07-23T11:31:00;10.60;;;9.70;;
19329;SDS011;9799;48.214;16.388;2022-07-23T11:34:39;10.30;;;9.07;;
19329;SDS011;9799;48.214;16.388;2022-07-23T11:38:04;10.15;;;9.15;;
19329;SDS011;9799;48.214;16.388;2022-07-23T11:41:27;10.18;;;9.27;;
19329;SDS011;9799;48.214;16.388;2022-07-23T11:44:48;10.95;;;9.98;;
19329;SDS011;9799;48.214;16.388;2022-07-23T11:48:17;11.32;;;10.23;;
19329;SDS011;9799;48.214;16.388;2022-07-23T11:51:40;9.85;;;9.02;;
19329;SDS011;9799;48.214;16.388;2022-07-23T11:55:02;10.32;;;9.43;;
19329;SDS011;9799;48.214;16.388;2022-07-23T11:58:25;11.40;;;10.27;;
19329;SDS011;9799;48.214;16.388;2022-07-23T12:01:55;11.27;;;10.10;;
19329;SDS011;9799;48.214;16.388;2022-07-23T12:05:19;9.93;;;9.02;;
19329;SDS011;9799;48.214;16.388;2022-07-23T12:08:41;10.73;;;9.82;;
19329;SDS011;9799;48.214;16.388;2022-07-23T12:12:03;12.30;;;10.05;;
19329;SDS011;9799;48.214;16.388;2022-07-23T12:15:25;10.43;;;9.48;;
19329;SDS011;9799;48.214;16.388;2022-07-23T12:18:51;10.15;;;9.25;;
19329;SDS011;9799;48.214;16.388;2022-07-23T12:22:13;10.40;;;9.43;;
19329;SDS011;9799;48.214;16.388;2022-07-23T12:25:35;11.40;;;10.43;;
19329;SDS011;9799;48.214;16.388;2022-07-23T12:28:57;8.52;;;7.75;;
19329;SDS011;9799;48.214;16.388;2022-07-23T12:32:19;12.38;;;11.18;;
19329;SDS011;9799;48.214;16.388;2022-07-23T12:35:42;9.70;;;9.00;;
19329;SDS011;9799;48.214;16.388;2022-07-23T12:39:06;9.98;;;9.02;;
19329;SDS011;9799;48.214;16.388;2022-07-23T12:42:27;8.45;;;7.75;;
19329;SDS011;9799;48.214;16.388;2022-07-23T12:45:51;8.90;;;8.10;;
19329;SDS011;9799;48.214;16.388;2022-07-23T12:49:14;8.23;;;7.43;;
19329;SDS011;9799;48.214;16.388;2022-07-23T12:52:46;8.48;;;7.68;;
19329;SDS011;9799;48.214;16.388;2022-07-23T12:56:09;8.50;;;7.75;;
19329;SDS011;9799;48.214;16.388;2022-07-23T12:59:33;8.18;;;7.43;;
19329;SDS011;9799;48.214;16.388;2022-07-23T13:02:54;8.30;;;7.45;;
19329;SDS011;9799;48.214;16.388;2022-07-23T13:06:15;7.15;;;6.55;;
19329;SDS011;9799;48.214;16.388;2022-07-23T13:09:36;9.07;;;6.53;;
19329;SDS011;9799;48.214;16.388;2022-07-23T13:13:02;6.60;;;5.90;;
19329;SDS011;9799;48.214;16.388;2022-07-23T13:16:28;6.30;;;5.70;;
19329;SDS011;9799;48.214;16.388;2022-07-23T13:19:50;5.40;;;4.90;;
19329;SDS011;9799;48.214;16.388;2022-07-23T13:23:11;4.72;;;4.32;;
19329;SDS011;9799;48.214;16.388;2022-07-23T13:26:32;4.88;;;4.47;;
19329;SDS011;9799;48.214;16.388;2022-07-23T13:29:55;4.63;;;4.22;;
19329;SDS011;9799;48.214;16.388;2022-07-23T13:33:16;5.03;;;4.05;;
19329;SDS011;9799;48.214;16.388;2022-07-23T13:36:38;5.10;;;4.40;;
19329;SDS011;9799;48.214;16.388;2022-07-23T13:39:59;6.40;;;4.43;;
19329;SDS011;9799;48.214;16.388;2022-07-23T13:43:21;4.68;;;4.28;;
19329;SDS011;9799;48.214;16.388;2022-07-23T13:46:45;4.78;;;4.00;;
19329;SDS011;9799;48.214;16.388;2022-07-23T13:50:06;3.97;;;3.67;;
19329;SDS011;9799;48.214;16.388;2022-07-23T13:53:28;5.20;;;4.70;;
19329;SDS011;9799;48.214;16.388;2022-07-23T13:56:49;4.28;;;3.97;;
19329;SDS011;9799;48.214;16.388;2022-07-23T14:00:11;4.63;;;4.22;;
19329;SDS011;9799;48.214;16.388;2022-07-23T14:03:34;4.80;;;4.40;;
19329;SDS011;9799;48.214;16.388;2022-07-23T14:06:55;4.47;;;4.07;;
19329;SDS011;9799;48.214;16.388;2022-07-23T14:10:17;4.45;;;3.95;;
19329;SDS011;9799;48.214;16.388;2022-07-23T14:13:39;4.05;;;3.75;;
19329;SDS011;9799;48.214;16.388;2022-07-23T14:17:00;7.38;;;4.65;;
19329;SDS011;9799;48.214;16.388;2022-07-23T14:20:23;22.58;;;18.75;;
19329;SDS011;9799;48.214;16.388;2022-07-23T14:23:45;6.72;;;6.13;;
19329;SDS011;9799;48.214;16.388;2022-07-23T14:27:06;5.72;;;4.00;;
19329;SDS011;9799;48.214;16.388;2022-07-23T14:30:27;3.88;;;3.58;;
19329;SDS011;9799;48.214;16.388;2022-07-23T14:33:48;4.63;;;4.22;;
19329;SDS011;9799;48.214;16.388;2022-07-23T14:37:11;5.40;;;4.28;;
19329;SDS011;9799;48.214;16.388;2022-07-23T14:40:32;4.38;;;3.97;;
19329;SDS011;9799;48.214;16.388;2022-07-23T14:43:53;4.78;;;4.18;;
19329;SDS011;9799;48.214;16.388;2022-07-23T14:47:16;4.68;;;4.28;;
19329;SDS011;9799;48.214;16.388;2022-07-23T14:50:37;11.13;;;4.25;;
19329;SDS011;9799;48.214;16.388;2022-07-23T14:54:00;5.63;;;4.00;;
19329;SDS011;9799;48.214;16.388;2022-07-23T14:57:21;7.78;;;5.38;;
19329;SDS011;9799;48.214;16.388;2022-07-23T15:00:42;5.38;;;4.35;;
19329;SDS011;9799;48.214;16.388;2022-07-23T15:04:03;5.63;;;4.38;;
19329;SDS011;9799;48.214;16.388;2022-07-23T15:07:25;5.32;;;4.80;;
19329;SDS011;9799;48.214;16.388;2022-07-23T15:10:47;6.47;;;4.70;;
19329;SDS011;9799;48.214;16.388;2022-07-23T15:14:09;5.75;;;5.15;;
19329;SDS011;9799;48.214;16.388;2022-07-23T15:17:30;5.80;;;5.20;;
19329;SDS011;9799;48.214;16.388;2022-07-23T15:20:52;5.10;;;4.70;;
19329;SDS011;9799;48.214;16.388;2022-07-23T15:24:13;5.53;;;5.03;;
19329;SDS011;9799;48.214;16.388;2022-07-23T15:27:36;5.20;;;4.80;;
19329;SDS011;9799;48.214;16.388;2022-07-23T15:30:58;5.32;;;4.82;;
19329;SDS011;9799;48.214;16.388;2022-07-23T15:34:19;7.30;;;5.28;;
19329;SDS011;9799;48.214;16.388;2022-07-23T15:37:40;9.20;;;5.40;;
19329;SDS011;9799;48.214;16.388;2022-07-23T15:41:02;6.15;;;5.45;;
19329;SDS011;9799;48.214;16.388;2022-07-23T15:44:25;6.07;;;5.57;;
19329;SDS011;9799;48.214;16.388;2022-07-23T15:47:46;5.70;;;5.20;;
19329;SDS011;9799;48.214;16.388;2022-07-23T15:51:08;6.47;;;5.80;;
19329;SDS011;9799;48.214;16.388;2022-07-23T15:54:29;7.22;;;5.50;;
19329;SDS011;9799;48.214;16.388;2022-07-23T15:57:50;6.22;;;5.72;;
19329;SDS011;9799;48.214;16.388;2022-07-23T16:01:13;5.90;;;5.40;;
19329;SDS011;9799;48.214;16.388;2022-07-23T16:04:34;6.10;;;5.50;;
19329;SDS011;9799;48.214;16.388;2022-07-23T16:07:56;6.60;;;6.00;;
19329;SDS011;9799;48.214;16.388;2022-07-23T16:11:17;7.60;;;6.90;;
19329;SDS011;9799;48.214;16.388;2022-07-23T16:14:39;8.90;;;7.28;;
19329;SDS011;9799;48.214;16.388;2022-07-23T16:18:02;8.15;;;6.35;;
19329;SDS011;9799;48.214;16.388;2022-07-23T16:21:24;6.78;;;5.85;;
19329;SDS011;9799;48.214;16.388;2022-07-23T16:24:45;7.03;;;6.07;;
19329;SDS011;9799;48.214;16.388;2022-07-23T16:28:06;6.07;;;5.47;;
19329;SDS011;9799;48.214;16.388;2022-07-23T16:31:28;6.78;;;6.10;;
19329;SDS011;9799;48.214;16.388;2022-07-23T16:34:52;6.57;;;5.95;;
19329;SDS011;9799;48.214;16.388;2022-07-23T16:38:13;6.72;;;6.18;;
19329;SDS011;9799;48.214;16.388;2022-07-23T16:41:34;6.47;;;5.90;;
19329;SDS011;9799;48.214;16.388;2022-07-23T16:44:55;6.45;;;5.75;;
19329;SDS011;9799;48.214;16.388;2022-07-23T16:48:18;5.93;;;5.43;;
19329;SDS011;9799;48.214;16.388;2022-07-23T16:51:40;6.20;;;5.60;;
19329;SDS011;9799;48.214;16.388;2022-07-23T16:55:02;6.25;;;5.75;;
19329;SDS011;9799;48.214;16.388;2022-07-23T16:58:23;5.97;;;5.47;;
19329;SDS011;9799;48.214;16.388;2022-07-23T17:01:44;5.78;;;5.28;;
19329;SDS011;9799;48.214;16.388;2022-07-23T17:05:06;5.90;;;5.40;;
19329;SDS011;9799;48.214;16.388;2022-07-23T17:08:29;7.95;;;4.90;;
19329;SDS011;9799;48.214;16.388;2022-07-23T17:11:50;6.35;;;5.40;;
19329;SDS011;9799;48.214;16.388;2022-07-23T17:15:12;6.05;;;5.07;;
19329;SDS011;9799;48.214;16.388;2022-07-23T17:18:33;5.78;;;5.28;;
19329;SDS011;9799;48.214;16.388;2022-07-23T17:21:54;6.43;;;5.82;;
19329;SDS011;9799;48.214;16.388;2022-07-23T17:25:16;5.63;;;5.10;;
19329;SDS011;9799;48.214;16.388;2022-07-23T17:28:38;6.20;;;5.70;;
19329;SDS011;9799;48.214;16.388;2022-07-23T17:31:59;7.93;;;7.30;;
19329;SDS011;9799;48.214;16.388;2022-07-23T17:35:21;8.38;;;7.57;;
19329;SDS011;9799;48.214;16.388;2022-07-23T17:38:42;7.10;;;6.50;;
19329;SDS011;9799;48.214;16.388;2022-07-23T17:42:05;7.13;;;6.50;;
19329;SDS011;9799;48.214;16.388;2022-07-23T17:45:26;7.13;;;6.32;;
19329;SDS011;9799;48.214;16.388;2022-07-23T17:48:47;6.05;;;5.55;;
19329;SDS011;9799;48.214;16.388;2022-07-23T17:52:08;7.00;;;6.40;;
19329;SDS011;9799;48.214;16.388;2022-07-23T17:55:30;7.05;;;6.45;;
19329;SDS011;9799;48.214;16.388;2022-07-23T17:58:53;6.72;;;6.22;;
19329;SDS011;9799;48.214;16.388;2022-07-23T18:02:15;7.80;;;6.07;;
19329;SDS011;9799;48.214;16.388;2022-07-23T18:05:36;7.22;;;6.53;;
19329;SDS011;9799;48.214;16.388;2022-07-23T18:08:58;6.90;;;6.35;;
19329;SDS011;9799;48.214;16.388;2022-07-23T18:12:19;6.88;;;6.28;;
19329;SDS011;9799;48.214;16.388;2022-07-23T18:15:42;6.47;;;5.97;;
19329;SDS011;9799;48.214;16.388;2022-07-23T18:19:03;8.15;;;6.38;;
19329;SDS011;9799;48.214;16.388;2022-07-23T18:22:25;8.10;;;6.55;;
19329;SDS011;9799;48.214;16.388;2022-07-23T18:25:46;7.05;;;6.50;;
19329;SDS011;9799;48.214;16.388;2022-07-23T18:29:07;7.18;;;6.57;;
19329;SDS011;9799;48.214;16.388;2022-07-23T18:32:30;8.15;;;6.15;;
19329;SDS011;9799;48.214;16.388;2022-07-23T18:35:52;7.47;;;6.78;;
19329;SDS011;9799;48.214;16.388;2022-07-23T18:39:13;6.43;;;5.85;;
19329;SDS011;9799;48.214;16.388;2022-07-23T18:42:34;6.88;;;6.20;;
19329;SDS011;9799;48.214;16.388;2022-07-23T18:45:55;7.57;;;6.93;;
19329;SDS011;9799;48.214;16.388;2022-07-23T18:49:22;6.93;;;6.32;;
19329;SDS011;9799;48.214;16.388;2022-07-23T18:52:43;7.20;;;6.50;;
19329;SDS011;9799;48.214;16.388;2022-07-23T18:56:04;7.50;;;6.78;;
19329;SDS011;9799;48.214;16.388;2022-07-23T18:59:26;8.13;;;7.35;;
19329;SDS011;9799;48.214;16.388;2022-07-23T19:02:47;7.15;;;6.55;;
19329;SDS011;9799;48.214;16.388;2022-07-23T19:06:09;7.63;;;6.70;;
19329;SDS011;9799;48.214;16.388;2022-07-23T19:09:31;6.95;;;6.15;;
19329;SDS011;9799;48.214;16.388;2022-07-23T19:12:52;7.57;;;6.93;;
19329;SDS011;9799;48.214;16.388;2022-07-23T19:16:14;10.88;;;7.50;;
19329;SDS011;9799;48.214;16.388;2022-07-23T19:19:35;8.80;;;7.13;;
19329;SDS011;9799;48.214;16.388;2022-07-23T19:22:58;7.72;;;6.82;;
19329;SDS011;9799;48.214;16.388;2022-07-23T19:26:19;7.65;;;6.95;;
19329;SDS011;9799;48.214;16.388;2022-07-23T19:29:40;7.55;;;6.88;;
19329;SDS011;9799;48.214;16.388;2022-07-23T19:33:01;7.32;;;6.63;;
19329;SDS011;9799;48.214;16.388;2022-07-23T19:36:23;7.90;;;7.18;;
19329;SDS011;9799;48.214;16.388;2022-07-23T19:39:45;7.07;;;6.38;;
19329;SDS011;9799;48.214;16.388;2022-07-23T19:43:07;9.02;;;7.95;;
19329;SDS011;9799;48.214;16.388;2022-07-23T19:46:28;9.50;;;7.13;;
19329;SDS011;9799;48.214;16.388;2022-07-23T19:49:49;7.07;;;6.43;;
19329;SDS011;9799;48.214;16.388;2022-07-23T19:53:10;8.38;;;6.75;;
19329;SDS011;9799;48.214;16.388;2022-07-23T19:56:33;11.75;;;6.35;;
19329;SDS011;9799;48.214;16.388;2022-07-23T19:59:54;7.40;;;6.78;;
19329;SDS011;9799;48.214;16.388;2022-07-23T20:03:16;9.88;;;6.85;;
19329;SDS011;9799;48.214;16.388;2022-07-23T20:06:38;7.43;;;6.70;;